sensor_id;sensor_type;location;lat;lon;timestamp;temperature;humidity
75719;DHT22;64340;48.534;-3.036;2024-02-26T00:01:42;18.80;60.60
75719;DHT22;64340;48.534;-3.036;2024-02-26T00:04:11;18.80;60.50
75719;DHT22;64340;48.534;-3.036;2024-02-26T00:06:38;18.80;60.50
75719;DHT22;64340;48.534;-3.036;2024-02-26T00:09:09;18.80;60.50
75719;DHT22;64340;48.534;-3.036;2024-02-26T00:11:36;18.80;60.50
75719;DHT22;64340;48.534;-3.036;2024-02-26T00:14:02;18.80;60.40
75719;DHT22;64340;48.534;-3.036;2024-02-26T00:16:28;18.80;60.40
75719;DHT22;64340;48.534;-3.036;2024-02-26T00:18:54;18.80;60.50
75719;DHT22;64340;48.534;-3.036;2024-02-26T00:21:20;18.70;60.50
75719;DHT22;64340;48.534;-3.036;2024-02-26T00:23:45;18.70;60.40
75719;DHT22;64340;48.534;-3.036;2024-02-26T00:26:11;18.70;60.40
75719;DHT22;64340;48.534;-3.036;2024-02-26T00:28:37;18.70;60.30
75719;DHT22;64340;48.534;-3.036;2024-02-26T00:31:03;18.70;60.30
75719;DHT22;64340;48.534;-3.036;2024-02-26T00:33:29;18.70;60.30
75719;DHT22;64340;48.534;-3.036;2024-02-26T00:35:54;18.60;60.30
75719;DHT22;64340;48.534;-3.036;2024-02-26T00:38:20;18.60;60.20
75719;DHT22;64340;48.534;-3.036;2024-02-26T00:40:46;18.60;60.20
75719;DHT22;64340;48.534;-3.036;2024-02-26T00:43:12;18.60;60.20
75719;DHT22;64340;48.534;-3.036;2024-02-26T00:45:38;18.50;60.30
75719;DHT22;64340;48.534;-3.036;2024-02-26T00:48:04;18.50;60.20
75719;DHT22;64340;48.534;-3.036;2024-02-26T00:50:36;18.60;59.90
75719;DHT22;64340;48.534;-3.036;2024-02-26T00:53:02;18.60;59.80
75719;DHT22;64340;48.534;-3.036;2024-02-26T00:55:28;18.60;59.90
75719;DHT22;64340;48.534;-3.036;2024-02-26T00:57:54;18.50;59.80
75719;DHT22;64340;48.534;-3.036;2024-02-26T01:00:20;18.60;59.70
75719;DHT22;64340;48.534;-3.036;2024-02-26T01:02:46;18.60;59.70
75719;DHT22;64340;48.534;-3.036;2024-02-26T01:05:12;18.50;59.70
75719;DHT22;64340;48.534;-3.036;2024-02-26T01:07:39;18.50;59.70
75719;DHT22;64340;48.534;-3.036;2024-02-26T01:10:05;18.50;59.50
75719;DHT22;64340;48.534;-3.036;2024-02-26T01:12:32;18.50;59.40
75719;DHT22;64340;48.534;-3.036;2024-02-26T01:14:59;18.40;59.40
75719;DHT22;64340;48.534;-3.036;2024-02-26T01:17:25;18.30;59.50
75719;DHT22;64340;48.534;-3.036;2024-02-26T01:19:50;18.40;59.20
75719;DHT22;64340;48.534;-3.036;2024-02-26T01:22:16;18.40;59.20
75719;DHT22;64340;48.534;-3.036;2024-02-26T01:24:42;18.40;59.20
75719;DHT22;64340;48.534;-3.036;2024-02-26T01:27:07;18.40;59.20
75719;DHT22;64340;48.534;-3.036;2024-02-26T01:29:34;18.40;59.10
75719;DHT22;64340;48.534;-3.036;2024-02-26T01:32:00;18.30;59.00
75719;DHT22;64340;48.534;-3.036;2024-02-26T01:34:26;18.30;59.10
75719;DHT22;64340;48.534;-3.036;2024-02-26T01:36:51;18.30;59.10
75719;DHT22;64340;48.534;-3.036;2024-02-26T01:39:17;18.20;59.00
75719;DHT22;64340;48.534;-3.036;2024-02-26T01:41:43;18.20;59.20
75719;DHT22;64340;48.534;-3.036;2024-02-26T01:44:12;18.20;59.10
75719;DHT22;64340;48.534;-3.036;2024-02-26T01:46:39;18.20;59.10
75719;DHT22;64340;48.534;-3.036;2024-02-26T01:49:04;18.10;59.00
75719;DHT22;64340;48.534;-3.036;2024-02-26T01:51:32;18.10;59.10
75719;DHT22;64340;48.534;-3.036;2024-02-26T01:54:00;18.10;58.90
75719;DHT22;64340;48.534;-3.036;2024-02-26T01:56:27;18.10;58.90
75719;DHT22;64340;48.534;-3.036;2024-02-26T01:58:56;18.10;58.50
75719;DHT22;64340;48.534;-3.036;2024-02-26T02:01:25;18.10;59.00
75719;DHT22;64340;48.534;-3.036;2024-02-26T02:03:51;18.10;59.10
75719;DHT22;64340;48.534;-3.036;2024-02-26T02:06:17;18.10;58.60
75719;DHT22;64340;48.534;-3.036;2024-02-26T02:08:44;18.00;58.50
75719;DHT22;64340;48.534;-3.036;2024-02-26T02:11:10;18.00;59.00
75719;DHT22;64340;48.534;-3.036;2024-02-26T02:13:37;18.00;58.80
75719;DHT22;64340;48.534;-3.036;2024-02-26T02:16:04;18.00;58.80
75719;DHT22;64340;48.534;-3.036;2024-02-26T02:18:29;18.10;58.70
75719;DHT22;64340;48.534;-3.036;2024-02-26T02:20:55;18.00;58.40
75719;DHT22;64340;48.534;-3.036;2024-02-26T02:23:22;18.00;58.40
75719;DHT22;64340;48.534;-3.036;2024-02-26T02:25:48;18.00;58.20
75719;DHT22;64340;48.534;-3.036;2024-02-26T02:28:13;17.90;58.40
75719;DHT22;64340;48.534;-3.036;2024-02-26T02:30:40;17.80;58.70
75719;DHT22;64340;48.534;-3.036;2024-02-26T02:33:06;17.80;58.10
75719;DHT22;64340;48.534;-3.036;2024-02-26T02:35:32;17.80;58.50
75719;DHT22;64340;48.534;-3.036;2024-02-26T02:37:58;17.80;58.60
75719;DHT22;64340;48.534;-3.036;2024-02-26T02:40:24;17.80;58.50
75719;DHT22;64340;48.534;-3.036;2024-02-26T02:42:49;17.80;58.50
75719;DHT22;64340;48.534;-3.036;2024-02-26T02:45:15;17.70;58.30
75719;DHT22;64340;48.534;-3.036;2024-02-26T02:47:41;17.70;58.20
75719;DHT22;64340;48.534;-3.036;2024-02-26T02:50:07;17.60;58.40
75719;DHT22;64340;48.534;-3.036;2024-02-26T02:52:32;17.60;58.30
75719;DHT22;64340;48.534;-3.036;2024-02-26T02:54:58;17.60;58.30
75719;DHT22;64340;48.534;-3.036;2024-02-26T02:57:24;17.50;58.30
75719;DHT22;64340;48.534;-3.036;2024-02-26T02:59:50;17.50;58.30
75719;DHT22;64340;48.534;-3.036;2024-02-26T03:02:15;17.50;58.20
75719;DHT22;64340;48.534;-3.036;2024-02-26T03:04:41;17.50;58.20
75719;DHT22;64340;48.534;-3.036;2024-02-26T03:07:07;17.50;58.20
75719;DHT22;64340;48.534;-3.036;2024-02-26T03:09:32;17.50;58.20
75719;DHT22;64340;48.534;-3.036;2024-02-26T03:11:58;17.40;58.50
75719;DHT22;64340;48.534;-3.036;2024-02-26T03:14:24;17.40;58.30
75719;DHT22;64340;48.534;-3.036;2024-02-26T03:16:56;17.30;58.30
75719;DHT22;64340;48.534;-3.036;2024-02-26T03:19:21;17.30;58.50
75719;DHT22;64340;48.534;-3.036;2024-02-26T03:21:47;17.30;58.30
75719;DHT22;64340;48.534;-3.036;2024-02-26T03:24:13;17.40;58.20
75719;DHT22;64340;48.534;-3.036;2024-02-26T03:26:39;17.30;58.10
75719;DHT22;64340;48.534;-3.036;2024-02-26T03:29:05;17.40;58.10
75719;DHT22;64340;48.534;-3.036;2024-02-26T03:31:31;17.40;57.90
75719;DHT22;64340;48.534;-3.036;2024-02-26T03:33:57;17.40;58.30
75719;DHT22;64340;48.534;-3.036;2024-02-26T03:36:23;17.30;58.10
75719;DHT22;64340;48.534;-3.036;2024-02-26T03:38:48;17.20;58.00
75719;DHT22;64340;48.534;-3.036;2024-02-26T03:41:14;17.20;57.90
75719;DHT22;64340;48.534;-3.036;2024-02-26T03:43:40;17.20;57.80
75719;DHT22;64340;48.534;-3.036;2024-02-26T03:46:09;17.20;57.80
75719;DHT22;64340;48.534;-3.036;2024-02-26T03:48:42;17.20;57.70
75719;DHT22;64340;48.534;-3.036;2024-02-26T03:51:11;17.20;57.50
75719;DHT22;64340;48.534;-3.036;2024-02-26T03:53:37;17.20;57.60
75719;DHT22;64340;48.534;-3.036;2024-02-26T03:56:06;17.20;57.60
75719;DHT22;64340;48.534;-3.036;2024-02-26T03:58:32;17.20;57.80
75719;DHT22;64340;48.534;-3.036;2024-02-26T04:00:59;17.10;57.90
75719;DHT22;64340;48.534;-3.036;2024-02-26T04:03:25;17.10;58.00
75719;DHT22;64340;48.534;-3.036;2024-02-26T04:05:51;17.20;57.80
75719;DHT22;64340;48.534;-3.036;2024-02-26T04:08:17;17.10;57.80
75719;DHT22;64340;48.534;-3.036;2024-02-26T04:10:42;17.00;57.80
75719;DHT22;64340;48.534;-3.036;2024-02-26T04:13:08;17.00;57.70
75719;DHT22;64340;48.534;-3.036;2024-02-26T04:15:34;17.00;57.70
75719;DHT22;64340;48.534;-3.036;2024-02-26T04:18:00;17.00;57.70
75719;DHT22;64340;48.534;-3.036;2024-02-26T04:20:26;17.00;57.70
75719;DHT22;64340;48.534;-3.036;2024-02-26T04:22:51;17.10;57.60
75719;DHT22;64340;48.534;-3.036;2024-02-26T04:25:18;17.10;57.50
75719;DHT22;64340;48.534;-3.036;2024-02-26T04:27:44;17.00;57.60
75719;DHT22;64340;48.534;-3.036;2024-02-26T04:30:10;17.00;57.50
75719;DHT22;64340;48.534;-3.036;2024-02-26T04:32:36;17.00;57.50
75719;DHT22;64340;48.534;-3.036;2024-02-26T04:35:03;17.00;57.70
75719;DHT22;64340;48.534;-3.036;2024-02-26T04:37:29;17.00;57.50
75719;DHT22;64340;48.534;-3.036;2024-02-26T04:40:00;17.00;57.40
75719;DHT22;64340;48.534;-3.036;2024-02-26T04:42:26;16.90;57.60
75719;DHT22;64340;48.534;-3.036;2024-02-26T04:44:54;16.90;57.60
75719;DHT22;64340;48.534;-3.036;2024-02-26T04:47:20;16.90;57.50
75719;DHT22;64340;48.534;-3.036;2024-02-26T04:49:49;16.90;57.60
75719;DHT22;64340;48.534;-3.036;2024-02-26T04:52:14;16.90;57.50
75719;DHT22;64340;48.534;-3.036;2024-02-26T04:54:40;16.90;57.30
75719;DHT22;64340;48.534;-3.036;2024-02-26T04:57:06;16.90;57.70
75719;DHT22;64340;48.534;-3.036;2024-02-26T04:59:31;16.80;57.60
75719;DHT22;64340;48.534;-3.036;2024-02-26T05:01:57;16.80;57.60
75719;DHT22;64340;48.534;-3.036;2024-02-26T05:04:23;16.80;57.60
75719;DHT22;64340;48.534;-3.036;2024-02-26T05:06:48;16.80;57.40
75719;DHT22;64340;48.534;-3.036;2024-02-26T05:09:14;16.70;57.60
75719;DHT22;64340;48.534;-3.036;2024-02-26T05:11:40;16.70;57.50
75719;DHT22;64340;48.534;-3.036;2024-02-26T05:14:06;16.70;57.40
75719;DHT22;64340;48.534;-3.036;2024-02-26T05:16:32;16.70;57.40
75719;DHT22;64340;48.534;-3.036;2024-02-26T05:18:58;16.70;57.30
75719;DHT22;64340;48.534;-3.036;2024-02-26T05:21:23;16.70;57.10
75719;DHT22;64340;48.534;-3.036;2024-02-26T05:23:49;16.80;57.20
75719;DHT22;64340;48.534;-3.036;2024-02-26T05:26:22;16.70;57.10
75719;DHT22;64340;48.534;-3.036;2024-02-26T05:28:48;16.70;57.10
75719;DHT22;64340;48.534;-3.036;2024-02-26T05:31:14;16.60;57.40
75719;DHT22;64340;48.534;-3.036;2024-02-26T05:33:40;16.50;57.60
75719;DHT22;64340;48.534;-3.036;2024-02-26T05:36:06;16.60;57.40
75719;DHT22;64340;48.534;-3.036;2024-02-26T05:38:32;16.50;57.50
75719;DHT22;64340;48.534;-3.036;2024-02-26T05:40:58;16.60;57.50
75719;DHT22;64340;48.534;-3.036;2024-02-26T05:43:27;16.60;57.40
75719;DHT22;64340;48.534;-3.036;2024-02-26T05:45:54;16.50;57.50
75719;DHT22;64340;48.534;-3.036;2024-02-26T05:48:19;16.50;57.50
75719;DHT22;64340;48.534;-3.036;2024-02-26T05:50:46;16.50;57.30
75719;DHT22;64340;48.534;-3.036;2024-02-26T05:53:12;16.50;57.20
75719;DHT22;64340;48.534;-3.036;2024-02-26T05:55:37;16.50;57.10
75719;DHT22;64340;48.534;-3.036;2024-02-26T05:58:03;16.50;57.30
75719;DHT22;64340;48.534;-3.036;2024-02-26T06:00:29;16.50;57.30
75719;DHT22;64340;48.534;-3.036;2024-02-26T06:02:55;16.50;57.20
75719;DHT22;64340;48.534;-3.036;2024-02-26T06:05:21;16.50;57.20
75719;DHT22;64340;48.534;-3.036;2024-02-26T06:07:46;16.40;57.10
75719;DHT22;64340;48.534;-3.036;2024-02-26T06:10:12;16.40;57.30
75719;DHT22;64340;48.534;-3.036;2024-02-26T06:12:39;16.30;57.20
75719;DHT22;64340;48.534;-3.036;2024-02-26T06:15:06;16.30;57.30
75719;DHT22;64340;48.534;-3.036;2024-02-26T06:17:32;16.30;57.20
75719;DHT22;64340;48.534;-3.036;2024-02-26T06:19:59;16.40;57.20
75719;DHT22;64340;48.534;-3.036;2024-02-26T06:22:25;16.30;57.10
75719;DHT22;64340;48.534;-3.036;2024-02-26T06:24:51;16.20;57.00
75719;DHT22;64340;48.534;-3.036;2024-02-26T06:27:16;16.30;56.80
75719;DHT22;64340;48.534;-3.036;2024-02-26T06:29:42;16.10;57.20
75719;DHT22;64340;48.534;-3.036;2024-02-26T06:32:08;16.10;57.20
75719;DHT22;64340;48.534;-3.036;2024-02-26T06:34:33;16.00;57.30
75719;DHT22;64340;48.534;-3.036;2024-02-26T06:36:59;16.00;57.40
75719;DHT22;64340;48.534;-3.036;2024-02-26T06:39:25;16.00;57.50
75719;DHT22;64340;48.534;-3.036;2024-02-26T06:41:50;16.10;57.20
75719;DHT22;64340;48.534;-3.036;2024-02-26T06:44:19;16.00;57.20
75719;DHT22;64340;48.534;-3.036;2024-02-26T06:46:45;16.00;57.40
75719;DHT22;64340;48.534;-3.036;2024-02-26T06:49:11;16.10;57.00
75719;DHT22;64340;48.534;-3.036;2024-02-26T06:51:36;16.10;57.10
75719;DHT22;64340;48.534;-3.036;2024-02-26T06:54:02;16.10;56.90
75719;DHT22;64340;48.534;-3.036;2024-02-26T06:56:28;16.20;56.70
75719;DHT22;64340;48.534;-3.036;2024-02-26T06:58:53;16.10;56.80
75719;DHT22;64340;48.534;-3.036;2024-02-26T07:01:19;16.00;56.90
75719;DHT22;64340;48.534;-3.036;2024-02-26T07:03:45;16.00;57.00
75719;DHT22;64340;48.534;-3.036;2024-02-26T07:06:11;16.00;56.80
75719;DHT22;64340;48.534;-3.036;2024-02-26T07:08:38;16.00;57.00
75719;DHT22;64340;48.534;-3.036;2024-02-26T07:11:07;15.90;57.20
75719;DHT22;64340;48.534;-3.036;2024-02-26T07:13:34;16.00;57.00
75719;DHT22;64340;48.534;-3.036;2024-02-26T07:16:00;16.00;57.00
75719;DHT22;64340;48.534;-3.036;2024-02-26T07:18:25;15.90;56.90
75719;DHT22;64340;48.534;-3.036;2024-02-26T07:20:51;15.90;57.10
75719;DHT22;64340;48.534;-3.036;2024-02-26T07:23:17;15.90;57.10
75719;DHT22;64340;48.534;-3.036;2024-02-26T07:25:43;15.80;57.10
75719;DHT22;64340;48.534;-3.036;2024-02-26T07:28:10;15.80;57.20
75719;DHT22;64340;48.534;-3.036;2024-02-26T07:30:36;15.80;57.10
75719;DHT22;64340;48.534;-3.036;2024-02-26T07:33:02;15.70;57.10
75719;DHT22;64340;48.534;-3.036;2024-02-26T07:35:27;15.60;57.60
75719;DHT22;64340;48.534;-3.036;2024-02-26T07:37:53;15.60;57.60
75719;DHT22;64340;48.534;-3.036;2024-02-26T07:40:19;15.70;57.20
75719;DHT22;64340;48.534;-3.036;2024-02-26T07:42:45;15.60;57.30
75719;DHT22;64340;48.534;-3.036;2024-02-26T07:45:10;15.60;57.40
75719;DHT22;64340;48.534;-3.036;2024-02-26T07:47:36;15.50;57.90
75719;DHT22;64340;48.534;-3.036;2024-02-26T07:50:07;15.60;57.30
75719;DHT22;64340;48.534;-3.036;2024-02-26T07:52:33;15.60;57.60
75719;DHT22;64340;48.534;-3.036;2024-02-26T07:54:58;15.40;57.80
75719;DHT22;64340;48.534;-3.036;2024-02-26T07:57:24;15.30;58.30
75719;DHT22;64340;48.534;-3.036;2024-02-26T07:59:50;15.40;58.20
75719;DHT22;64340;48.534;-3.036;2024-02-26T08:02:16;15.40;58.10
75719;DHT22;64340;48.534;-3.036;2024-02-26T08:04:42;15.30;58.30
75719;DHT22;64340;48.534;-3.036;2024-02-26T08:07:08;15.30;58.30
75719;DHT22;64340;48.534;-3.036;2024-02-26T08:09:33;15.30;58.50
75719;DHT22;64340;48.534;-3.036;2024-02-26T08:11:59;15.30;58.30
75719;DHT22;64340;48.534;-3.036;2024-02-26T08:14:25;15.30;58.40
75719;DHT22;64340;48.534;-3.036;2024-02-26T08:16:50;15.30;58.40
75719;DHT22;64340;48.534;-3.036;2024-02-26T08:19:16;15.40;58.40
75719;DHT22;64340;48.534;-3.036;2024-02-26T08:21:43;15.30;58.40
75719;DHT22;64340;48.534;-3.036;2024-02-26T08:24:09;15.30;58.20
75719;DHT22;64340;48.534;-3.036;2024-02-26T08:26:35;15.20;58.80
75719;DHT22;64340;48.534;-3.036;2024-02-26T08:29:01;15.40;58.20
75719;DHT22;64340;48.534;-3.036;2024-02-26T08:31:26;15.60;57.40
75719;DHT22;64340;48.534;-3.036;2024-02-26T08:33:53;15.60;57.50
75719;DHT22;64340;48.534;-3.036;2024-02-26T08:36:19;15.60;57.00
75719;DHT22;64340;48.534;-3.036;2024-02-26T08:38:44;15.60;57.10
75719;DHT22;64340;48.534;-3.036;2024-02-26T08:41:11;15.50;57.60
75719;DHT22;64340;48.534;-3.036;2024-02-26T08:43:38;15.50;57.70
75719;DHT22;64340;48.534;-3.036;2024-02-26T08:46:04;15.30;57.90
75719;DHT22;64340;48.534;-3.036;2024-02-26T08:48:33;15.30;58.50
75719;DHT22;64340;48.534;-3.036;2024-02-26T08:50:59;15.50;57.70
75719;DHT22;64340;48.534;-3.036;2024-02-26T08:53:24;15.30;58.40
75719;DHT22;64340;48.534;-3.036;2024-02-26T08:55:52;15.40;58.40
75719;DHT22;64340;48.534;-3.036;2024-02-26T08:58:18;15.20;58.90
75719;DHT22;64340;48.534;-3.036;2024-02-26T09:00:44;15.40;59.00
75719;DHT22;64340;48.534;-3.036;2024-02-26T09:03:10;15.50;59.30
75719;DHT22;64340;48.534;-3.036;2024-02-26T09:05:36;15.40;59.60
75719;DHT22;64340;48.534;-3.036;2024-02-26T09:08:02;15.50;59.30
75719;DHT22;64340;48.534;-3.036;2024-02-26T09:10:28;15.40;59.20
75719;DHT22;64340;48.534;-3.036;2024-02-26T09:12:54;15.20;59.50
75719;DHT22;64340;48.534;-3.036;2024-02-26T09:15:20;15.20;59.60
75719;DHT22;64340;48.534;-3.036;2024-02-26T09:17:46;15.20;59.20
75719;DHT22;64340;48.534;-3.036;2024-02-26T09:20:15;15.40;59.00
75719;DHT22;64340;48.534;-3.036;2024-02-26T09:22:46;15.50;58.70
75719;DHT22;64340;48.534;-3.036;2024-02-26T09:25:11;15.40;58.70
75719;DHT22;64340;48.534;-3.036;2024-02-26T09:27:37;15.40;58.30
75719;DHT22;64340;48.534;-3.036;2024-02-26T09:30:03;15.30;58.80
75719;DHT22;64340;48.534;-3.036;2024-02-26T09:32:29;15.30;58.30
75719;DHT22;64340;48.534;-3.036;2024-02-26T09:34:55;15.30;58.40
75719;DHT22;64340;48.534;-3.036;2024-02-26T09:37:21;15.40;58.50
75719;DHT22;64340;48.534;-3.036;2024-02-26T09:39:47;15.60;58.00
75719;DHT22;64340;48.534;-3.036;2024-02-26T09:42:13;15.50;58.30
75719;DHT22;64340;48.534;-3.036;2024-02-26T09:44:40;15.50;58.40
75719;DHT22;64340;48.534;-3.036;2024-02-26T09:47:11;15.50;58.00
75719;DHT22;64340;48.534;-3.036;2024-02-26T09:49:39;15.60;57.60
75719;DHT22;64340;48.534;-3.036;2024-02-26T09:52:06;15.80;57.40
75719;DHT22;64340;48.534;-3.036;2024-02-26T09:54:35;15.80;57.50
75719;DHT22;64340;48.534;-3.036;2024-02-26T09:57:02;15.80;57.40
75719;DHT22;64340;48.534;-3.036;2024-02-26T09:59:32;15.90;57.50
75719;DHT22;64340;48.534;-3.036;2024-02-26T10:02:01;15.90;57.50
75719;DHT22;64340;48.534;-3.036;2024-02-26T10:04:28;15.80;57.90
75719;DHT22;64340;48.534;-3.036;2024-02-26T10:06:54;15.80;57.50
75719;DHT22;64340;48.534;-3.036;2024-02-26T10:09:20;16.00;57.50
75719;DHT22;64340;48.534;-3.036;2024-02-26T10:11:48;16.00;57.20
75719;DHT22;64340;48.534;-3.036;2024-02-26T10:14:15;16.10;57.00
75719;DHT22;64340;48.534;-3.036;2024-02-26T10:16:41;16.20;56.70
75719;DHT22;64340;48.534;-3.036;2024-02-26T10:19:07;16.20;56.80
75719;DHT22;64340;48.534;-3.036;2024-02-26T10:21:33;16.20;57.00
75719;DHT22;64340;48.534;-3.036;2024-02-26T10:23:59;16.00;57.20
75719;DHT22;64340;48.534;-3.036;2024-02-26T10:26:24;16.10;56.90
75719;DHT22;64340;48.534;-3.036;2024-02-26T10:28:50;16.20;56.60
75719;DHT22;64340;48.534;-3.036;2024-02-26T10:31:16;16.40;55.90
75719;DHT22;64340;48.534;-3.036;2024-02-26T10:33:43;16.40;56.50
75719;DHT22;64340;48.534;-3.036;2024-02-26T10:36:09;16.40;56.70
75719;DHT22;64340;48.534;-3.036;2024-02-26T10:38:36;16.40;56.70
75719;DHT22;64340;48.534;-3.036;2024-02-26T10:41:06;16.60;56.10
75719;DHT22;64340;48.534;-3.036;2024-02-26T10:43:32;16.70;56.40
75719;DHT22;64340;48.534;-3.036;2024-02-26T10:45:58;16.80;56.20
75719;DHT22;64340;48.534;-3.036;2024-02-26T10:48:24;16.90;56.10
75719;DHT22;64340;48.534;-3.036;2024-02-26T10:50:50;17.00;56.00
75719;DHT22;64340;48.534;-3.036;2024-02-26T10:53:22;17.00;55.90
75719;DHT22;64340;48.534;-3.036;2024-02-26T10:56:07;16.90;56.10
75719;DHT22;64340;48.534;-3.036;2024-02-26T10:58:34;17.00;56.10
75719;DHT22;64340;48.534;-3.036;2024-02-26T11:01:01;17.00;56.10
75719;DHT22;64340;48.534;-3.036;2024-02-26T11:03:28;17.00;55.90
75719;DHT22;64340;48.534;-3.036;2024-02-26T11:05:58;17.00;55.60
75719;DHT22;64340;48.534;-3.036;2024-02-26T11:08:26;17.30;55.90
75719;DHT22;64340;48.534;-3.036;2024-02-26T11:10:55;17.40;56.20
75719;DHT22;64340;48.534;-3.036;2024-02-26T11:13:23;17.50;56.30
75719;DHT22;64340;48.534;-3.036;2024-02-26T11:15:53;17.60;56.40
75719;DHT22;64340;48.534;-3.036;2024-02-26T11:18:23;17.60;56.40
75719;DHT22;64340;48.534;-3.036;2024-02-26T11:20:52;17.70;56.20
75719;DHT22;64340;48.534;-3.036;2024-02-26T11:23:22;17.60;56.50
75719;DHT22;64340;48.534;-3.036;2024-02-26T11:25:53;17.80;56.40
75719;DHT22;64340;48.534;-3.036;2024-02-26T11:28:22;17.80;56.90
75719;DHT22;64340;48.534;-3.036;2024-02-26T11:30:49;18.00;56.80
75719;DHT22;64340;48.534;-3.036;2024-02-26T11:33:15;18.00;56.70
75719;DHT22;64340;48.534;-3.036;2024-02-26T11:35:42;17.80;56.80
75719;DHT22;64340;48.534;-3.036;2024-02-26T11:38:08;17.90;57.00
75719;DHT22;64340;48.534;-3.036;2024-02-26T11:40:38;18.00;56.80
75719;DHT22;64340;48.534;-3.036;2024-02-26T11:43:07;17.90;56.90
75719;DHT22;64340;48.534;-3.036;2024-02-26T11:48:25;17.90;56.80
75719;DHT22;64340;48.534;-3.036;2024-02-26T11:50:55;18.00;56.60
75719;DHT22;64340;48.534;-3.036;2024-02-26T11:53:31;18.10;56.30
75719;DHT22;64340;48.534;-3.036;2024-02-26T11:58:45;17.80;56.40
75719;DHT22;64340;48.534;-3.036;2024-02-26T12:04:13;17.90;56.30
75719;DHT22;64340;48.534;-3.036;2024-02-26T12:07:18;17.90;56.10
75719;DHT22;64340;48.534;-3.036;2024-02-26T12:09:42;18.00;56.00
75719;DHT22;64340;48.534;-3.036;2024-02-26T12:12:09;18.00;56.00
75719;DHT22;64340;48.534;-3.036;2024-02-26T12:14:55;18.00;55.80
75719;DHT22;64340;48.534;-3.036;2024-02-26T12:17:25;18.00;56.00
75719;DHT22;64340;48.534;-3.036;2024-02-26T12:19:51;18.10;55.60
75719;DHT22;64340;48.534;-3.036;2024-02-26T12:22:19;18.10;55.70
75719;DHT22;64340;48.534;-3.036;2024-02-26T12:24:45;18.10;55.50
75719;DHT22;64340;48.534;-3.036;2024-02-26T12:27:11;18.10;55.40
75719;DHT22;64340;48.534;-3.036;2024-02-26T12:29:37;17.80;55.80
75719;DHT22;64340;48.534;-3.036;2024-02-26T12:32:04;18.00;55.40
75719;DHT22;64340;48.534;-3.036;2024-02-26T12:34:31;18.00;55.30
75719;DHT22;64340;48.534;-3.036;2024-02-26T12:36:57;18.10;55.00
75719;DHT22;64340;48.534;-3.036;2024-02-26T12:39:23;18.10;55.00
75719;DHT22;64340;48.534;-3.036;2024-02-26T12:41:49;18.10;54.80
75719;DHT22;64340;48.534;-3.036;2024-02-26T12:44:18;18.10;54.80
75719;DHT22;64340;48.534;-3.036;2024-02-26T12:46:44;18.10;54.70
75719;DHT22;64340;48.534;-3.036;2024-02-26T12:49:16;18.10;54.60
75719;DHT22;64340;48.534;-3.036;2024-02-26T12:51:44;18.10;54.50
75719;DHT22;64340;48.534;-3.036;2024-02-26T12:54:10;18.00;54.70
75719;DHT22;64340;48.534;-3.036;2024-02-26T12:56:37;17.80;55.20
75719;DHT22;64340;48.534;-3.036;2024-02-26T12:59:03;17.90;54.80
75719;DHT22;64340;48.534;-3.036;2024-02-26T13:01:30;18.00;54.90
75719;DHT22;64340;48.534;-3.036;2024-02-26T13:03:56;18.10;54.50
75719;DHT22;64340;48.534;-3.036;2024-02-26T13:06:22;18.10;54.40
75719;DHT22;64340;48.534;-3.036;2024-02-26T13:08:48;18.20;54.20
75719;DHT22;64340;48.534;-3.036;2024-02-26T13:11:15;18.10;54.30
75719;DHT22;64340;48.534;-3.036;2024-02-26T13:13:41;18.10;54.30
75719;DHT22;64340;48.534;-3.036;2024-02-26T13:16:16;18.10;54.20
75719;DHT22;64340;48.534;-3.036;2024-02-26T13:18:41;18.10;54.40
75719;DHT22;64340;48.534;-3.036;2024-02-26T13:21:09;18.20;54.10
75719;DHT22;64340;48.534;-3.036;2024-02-26T13:23:36;18.20;54.30
75719;DHT22;64340;48.534;-3.036;2024-02-26T13:26:01;18.30;54.30
75719;DHT22;64340;48.534;-3.036;2024-02-26T13:28:27;18.30;54.00
75719;DHT22;64340;48.534;-3.036;2024-02-26T13:30:54;18.40;53.80
75719;DHT22;64340;48.534;-3.036;2024-02-26T13:33:24;18.40;53.80
75719;DHT22;64340;48.534;-3.036;2024-02-26T13:35:51;18.30;53.90
75719;DHT22;64340;48.534;-3.036;2024-02-26T13:38:18;18.40;53.70
75719;DHT22;64340;48.534;-3.036;2024-02-26T13:40:44;18.40;53.70
75719;DHT22;64340;48.534;-3.036;2024-02-26T13:43:10;18.40;53.60
75719;DHT22;64340;48.534;-3.036;2024-02-26T13:45:36;18.50;53.60
75719;DHT22;64340;48.534;-3.036;2024-02-26T13:48:07;18.50;53.40
75719;DHT22;64340;48.534;-3.036;2024-02-26T13:50:33;18.50;53.40
75719;DHT22;64340;48.534;-3.036;2024-02-26T13:52:59;18.60;53.20
75719;DHT22;64340;48.534;-3.036;2024-02-26T13:55:28;18.30;53.80
75719;DHT22;64340;48.534;-3.036;2024-02-26T13:57:59;18.30;53.50
75719;DHT22;64340;48.534;-3.036;2024-02-26T14:00:27;18.40;53.50
75719;DHT22;64340;48.534;-3.036;2024-02-26T14:02:54;18.40;53.50
75719;DHT22;64340;48.534;-3.036;2024-02-26T14:05:20;18.50;53.40
75719;DHT22;64340;48.534;-3.036;2024-02-26T14:07:46;18.50;53.40
75719;DHT22;64340;48.534;-3.036;2024-02-26T14:10:12;18.50;53.30
75719;DHT22;64340;48.534;-3.036;2024-02-26T14:12:38;18.30;53.60
75719;DHT22;64340;48.534;-3.036;2024-02-26T14:15:08;18.40;53.40
75719;DHT22;64340;48.534;-3.036;2024-02-26T14:17:33;18.50;53.30
75719;DHT22;64340;48.534;-3.036;2024-02-26T14:19:59;18.60;53.10
75719;DHT22;64340;48.534;-3.036;2024-02-26T14:22:26;18.60;52.90
75719;DHT22;64340;48.534;-3.036;2024-02-26T14:24:52;18.60;52.70
75719;DHT22;64340;48.534;-3.036;2024-02-26T14:27:18;18.60;52.80
75719;DHT22;64340;48.534;-3.036;2024-02-26T14:29:48;18.60;52.60
75719;DHT22;64340;48.534;-3.036;2024-02-26T14:32:14;18.50;52.80
75719;DHT22;64340;48.534;-3.036;2024-02-26T14:34:40;18.50;52.50
75719;DHT22;64340;48.534;-3.036;2024-02-26T14:37:06;18.60;52.50
75719;DHT22;64340;48.534;-3.036;2024-02-26T14:39:32;18.60;52.40
75719;DHT22;64340;48.534;-3.036;2024-02-26T14:41:58;18.50;52.70
75719;DHT22;64340;48.534;-3.036;2024-02-26T14:44:25;18.40;53.00
75719;DHT22;64340;48.534;-3.036;2024-02-26T14:46:51;18.60;52.50
75719;DHT22;64340;48.534;-3.036;2024-02-26T14:49:17;18.80;52.20
75719;DHT22;64340;48.534;-3.036;2024-02-26T14:51:45;18.80;51.90
75719;DHT22;64340;48.534;-3.036;2024-02-26T14:54:14;18.80;52.20
75719;DHT22;64340;48.534;-3.036;2024-02-26T14:56:40;18.70;52.30
75719;DHT22;64340;48.534;-3.036;2024-02-26T14:59:06;18.50;52.50
75719;DHT22;64340;48.534;-3.036;2024-02-26T15:01:32;18.40;52.60
75719;DHT22;64340;48.534;-3.036;2024-02-26T15:03:58;18.50;52.30
75719;DHT22;64340;48.534;-3.036;2024-02-26T15:06:24;18.50;52.30
75719;DHT22;64340;48.534;-3.036;2024-02-26T15:08:51;18.40;52.20
75719;DHT22;64340;48.534;-3.036;2024-02-26T15:11:16;18.40;52.20
75719;DHT22;64340;48.534;-3.036;2024-02-26T15:13:42;18.50;52.20
75719;DHT22;64340;48.534;-3.036;2024-02-26T15:16:08;18.50;52.10
75719;DHT22;64340;48.534;-3.036;2024-02-26T15:18:36;18.50;51.90
75719;DHT22;64340;48.534;-3.036;2024-02-26T15:21:02;18.40;51.80